createdAt,value
2022-12-11T00:01:35.870Z,89.62648
2022-12-11T00:06:37.309Z,88.2623
2022-12-11T00:11:38.990Z,87.25581
2022-12-11T00:16:40.545Z,87.92523
2022-12-11T00:21:42.118Z,92.79227
2022-12-11T00:26:43.687Z,99.16373
2022-12-11T00:31:45.136Z,100.34518
2022-12-11T00:36:46.706Z,98
2022-12-11T00:41:48.340Z,98
2022-12-11T00:46:49.812Z,97.23383
2022-12-11T00:51:51.314Z,93.15254
2022-12-11T00:56:52.902Z,90.66667
2022-12-11T01:01:54.353Z,92.79227
2022-12-11T01:06:56.484Z,91.72182
2022-12-11T01:11:58.170Z,91.01671
2022-12-11T01:16:59.620Z,91.36842
2022-12-11T01:22:01.130Z,91.72182
2022-12-11T01:27:02.597Z,92.43373
2022-12-11T01:32:04.018Z,85.6092
2022-12-11T01:37:05.427Z,84.31891
2022-12-11T01:42:07.171Z,96.09877
2022-12-11T01:47:08.592Z,93.87835
2022-12-11T01:52:10.142Z,98
2022-12-11T01:57:11.742Z,106.53298
2022-12-11T02:02:13.412Z,104.41667
2022-12-11T02:07:15.164Z,107.82979
2022-12-11T02:12:17.368Z,107.39523
2022-12-11T02:17:19.018Z,109.5914
2022-12-11T02:22:20.512Z,108.70588
2022-12-11T02:27:22.000Z,111.84741
2022-12-11T02:32:24.027Z,110.48649
2022-12-11T02:37:25.930Z,110.03774
2022-12-11T02:42:27.975Z,113.23077
2022-12-11T02:47:29.752Z,114.16575
2022-12-11T02:52:31.590Z,115.11111
2022-12-11T02:57:33.414Z,119
2022-12-11T03:02:35.214Z,119
2022-12-11T03:07:37.019Z,123.59184
2022-12-11T03:12:39.139Z,121.52161
2022-12-11T03:17:41.082Z,127.8806
2022-12-11T03:22:43.002Z,130.66667
2022-12-11T03:27:44.926Z,132.3792
2022-12-11T03:32:46.860Z,132.3792
2022-12-11T03:37:48.721Z,132.3792
2022-12-11T03:42:50.779Z,130.66667
2022-12-11T03:47:52.447Z,127.8806
2022-12-11T03:52:54.284Z,132.3792
2022-12-11T03:57:55.959Z,133.53846
2022-12-11T04:02:57.778Z,134.12346
2022-12-11T04:07:59.648Z,132.3792
2022-12-11T04:13:01.822Z,133.53846
2022-12-11T04:18:03.997Z,130.66667
2022-12-11T04:23:05.967Z,130.66667
2022-12-11T04:28:07.655Z,128.43114
2022-12-11T04:33:09.499Z,130.10272
2022-12-11T04:38:11.070Z,128.98498
2022-12-11T04:43:13.019Z,126.24852
2022-12-11T04:48:14.691Z,123.06977
2022-12-11T04:53:16.061Z,125.17647
2022-12-11T04:58:22.649Z,133.53846
2022-12-11T05:03:24.128Z,134.12346
2022-12-11T05:08:25.631Z,133.53846
2022-12-11T05:13:27.350Z,123.06977
2022-12-11T05:18:28.871Z,130.66667
2022-12-11T05:23:30.331Z,127.33333
2022-12-11T05:28:31.963Z,127.33333
2022-12-11T05:33:33.650Z,124.11696
2022-12-11T05:38:35.074Z,135.30435
2022-12-11T05:43:36.756Z,128.98498
2022-12-11T05:48:38.369Z,135.90031
2022-12-11T05:53:40.222Z,128.43114
2022-12-11T05:58:42.136Z,125.17647
2022-12-11T06:03:44.112Z,146.63158
2022-12-11T06:08:45.959Z,136.5
2022-12-11T06:13:48.076Z,135.30435
2022-12-11T06:18:49.923Z,154.9589
2022-12-11T06:23:51.708Z,162.43972
2022-12-11T06:28:53.518Z,161.66784
2022-12-11T06:33:55.367Z,161.66784
2022-12-11T06:38:57.175Z,167.18841
2022-12-11T06:43:59.219Z,179.1145
2022-12-11T06:49:01.124Z,174.71161
2022-12-11T06:54:02.864Z,177.33333
2022-12-11T06:59:07.542Z,172.14815
2022-12-11T07:04:09.411Z,165.58273
2022-12-11T07:09:11.004Z,177.33333
2022-12-11T07:14:12.742Z,190.4
2022-12-11T07:19:14.193Z,192.3871
2022-12-11T07:24:15.654Z,209.51724
2022-12-11T07:29:17.083Z,210.66667
2022-12-11T07:34:18.565Z,203.91561
2022-12-11T07:39:19.977Z,183.68872
2022-12-11T07:44:21.813Z,216.56637
2022-12-11T07:49:23.364Z,197.49794
2022-12-11T07:54:24.900Z,234.56604
2022-12-11T07:59:26.557Z,253.54774
2022-12-11T08:04:28.107Z,288.13408
2022-12-11T08:09:29.619Z,247.44828
2022-12-11T08:14:31.406Z,261.52577
2022-12-11T08:19:33.032Z,219
2022-12-11T08:24:34.795Z,245.96078
2022-12-11T08:29:37.216Z,292.0226
2022-12-11T08:34:38.892Z,306.35294
2022-12-11T08:39:40.647Z,290.06742
2022-12-11T08:44:42.568Z,278.78261
2022-12-11T08:49:44.142Z,271.65957
2022-12-11T08:54:45.747Z,308.49704
2022-12-11T08:59:47.644Z,319.60976
2022-12-11T09:04:49.281Z,278.78261
2022-12-11T09:09:50.956Z,248.9505
2022-12-11T09:14:52.846Z,290.06742
2022-12-11T09:19:54.461Z,310.66667
2022-12-11T09:24:56.715Z,296
2022-12-11T09:29:58.464Z,256.69036
2022-12-11T09:35:00.335Z,261.52577
2022-12-11T09:40:07.329Z,271.65957
2022-12-11T09:45:09.900Z,269.92593
2022-12-11T09:50:11.727Z,250.46766
2022-12-11T09:55:13.665Z,258.28571
2022-12-11T10:00:15.386Z,278.78261
2022-12-11T10:05:16.936Z,275.1828
2022-12-11T10:10:18.470Z,256.69036
2022-12-11T10:15:20.110Z,292.0226
2022-12-11T10:20:21.747Z,284.33149
2022-12-11T10:30:39.531Z,253.54774
2022-12-11T10:35:41.135Z,233.20188
2022-12-11T10:40:42.641Z,255.11111
2022-12-11T10:45:44.293Z,227.87097
2022-12-11T10:50:45.821Z,233.20188
2022-12-11T10:55:47.283Z,256.69036
2022-12-11T11:00:48.989Z,259.89744
2022-12-11T11:05:50.509Z,244.4878
2022-12-11T11:10:51.941Z,276.97297
2022-12-11T11:15:53.567Z,248.9505
2022-12-11T11:20:55.083Z,229.18519
2022-12-11T11:25:56.823Z,226.56881
2022-12-11T11:30:58.412Z,226.56881
2022-12-11T11:35:59.892Z,250.46766
2022-12-11T11:41:06.632Z,198.54545
2022-12-11T11:46:11.052Z,264.83333
2022-12-11T11:51:12.597Z,266.51309
2022-12-11T11:56:14.120Z,258.28571
2022-12-11T12:01:15.941Z,248.9505
2022-12-11T12:06:17.518Z,230.51163
2022-12-11T12:11:18.936Z,136.5
2022-12-11T12:16:51.028Z,121.01149
2022-12-11T12:21:53.598Z,128.98498
2022-12-11T12:26:55.100Z,130.10272
2022-12-11T12:31:56.615Z,131.23404
2022-12-11T12:36:58.109Z,135.30435
2022-12-11T12:42:05.658Z,131.80488
2022-12-11T12:47:09.499Z,137.71069
2022-12-11T12:52:11.103Z,180.01533
2022-12-11T12:57:12.542Z,234.56604
2022-12-11T13:02:14.057Z,250.46766
2022-12-11T13:07:15.579Z,306.35294
2022-12-11T13:12:17.011Z,273.41176
2022-12-11T13:17:18.920Z,264.83333
2022-12-11T13:22:20.879Z,250.46766
2022-12-11T13:27:22.566Z,266.51309
2022-12-11T13:32:24.521Z,209.51724
2022-12-11T13:37:26.342Z,221.47748
2022-12-11T13:42:28.356Z,180.01533
2022-12-11T13:47:30.347Z,155.68385
2022-12-11T13:52:32.133Z,157.88889
2022-12-11T13:57:34.135Z,196.45902
2022-12-11T14:02:36.354Z,215.36564
2022-12-11T14:07:38.493Z,199.60166
2022-12-11T14:12:40.286Z,197.49794
2022-12-11T14:17:45.887Z,205.01695
2022-12-11T14:22:50.296Z,187.47826
2022-12-11T14:27:51.904Z,186.51969
2022-12-11T14:32:53.323Z,231.85047
2022-12-11T14:37:55.136Z,250.46766
2022-12-11T14:43:00.177Z,183.68872
2022-12-11T14:48:02.596Z,216.56637
2022-12-11T14:53:04.544Z,264.83333
2022-12-11T14:58:06.306Z,286.22222
2022-12-11T15:03:07.855Z,284.33149
2022-12-11T15:08:09.692Z,304.23392
2022-12-11T15:13:11.508Z,286.22222
2022-12-11T15:18:13.359Z,278.78261
2022-12-11T15:23:18.656Z,264.83333
2022-12-11T15:28:20.456Z,244.4878
2022-12-11T15:33:22.073Z,259.89744
2022-12-11T15:38:23.521Z,245.96078
2022-12-11T15:43:25.093Z,248.9505
2022-12-11T15:48:27.033Z,245.96078
2022-12-11T15:53:28.431Z,227.87097
2022-12-11T15:58:29.920Z,210.66667
2022-12-11T16:03:31.731Z,194.4065
2022-12-11T16:08:33.504Z,197.49794
2022-12-11T16:13:35.366Z,192.3871
2022-12-11T16:18:37.256Z,199.60166
2022-12-11T16:23:38.982Z,226.56881
2022-12-11T16:28:40.892Z,247.44828
2022-12-11T16:33:42.631Z,227.87097
2022-12-11T16:38:49.803Z,240.15385
2022-12-11T16:43:55.077Z,243.02913
2022-12-11T16:48:56.984Z,247.44828
2022-12-11T16:53:58.756Z,241.58454
2022-12-11T16:59:00.431Z,240.15385
2022-12-11T17:04:01.976Z,245.96078
2022-12-11T17:09:03.596Z,247.44828
2022-12-11T17:14:05.083Z,256.69036
2022-12-11T17:19:06.703Z,245.96078
2022-12-11T17:24:08.289Z,264.83333
2022-12-11T17:29:09.741Z,278.78261
2022-12-11T17:34:11.437Z,271.65957
2022-12-11T17:39:12.967Z,273.41176
2022-12-11T17:44:14.428Z,278.78261
2022-12-11T17:49:16.145Z,269.92593
2022-12-11T17:54:17.645Z,258.28571
2022-12-11T17:59:19.154Z,248.9505
2022-12-11T18:04:20.711Z,245.96078
2022-12-11T18:09:22.261Z,245.96078
2022-12-11T18:14:23.689Z,234.56604
2022-12-11T18:19:25.909Z,238.73684
2022-12-11T18:24:27.365Z,217.77778
2022-12-11T18:29:28.922Z,229.18519
2022-12-11T18:34:30.473Z,215.36564
2022-12-11T18:39:32.151Z,210.66667
2022-12-11T18:44:33.813Z,212.99563
2022-12-11T18:49:35.567Z,219
2022-12-11T18:54:37.177Z,212.99563
2022-12-11T18:59:38.656Z,205.01695
2022-12-11T19:04:40.119Z,206.12766
2022-12-11T19:09:46.184Z,200.66667
2022-12-11T19:14:49.738Z,203.91561
2022-12-11T19:19:51.647Z,193.39271
2022-12-11T19:24:53.480Z,188.44444
2022-12-11T19:29:55.350Z,186.51969
2022-12-11T19:34:57.038Z,185.56863
2022-12-11T19:39:58.899Z,172.99628
2022-12-11T19:45:00.583Z,164
2022-12-11T19:50:02.663Z,143.35275
2022-12-11T19:55:05.154Z,137.71069
2022-12-11T20:00:06.987Z,140.17834
2022-12-11T20:05:08.774Z,152.81356
2022-12-11T20:10:10.607Z,156.41379
2022-12-11T20:15:12.681Z,177.33333
2022-12-11T20:20:14.871Z,174.71161
2022-12-11T20:25:16.406Z,197.49794
2022-12-11T20:30:17.930Z,191.38956
2022-12-11T20:35:19.509Z,196.45902
2022-12-11T20:40:20.929Z,198.54545
2022-12-11T20:45:22.404Z,185.56863
2022-12-11T20:50:24.264Z,173.85075
2022-12-11T20:55:26.183Z,164
2022-12-11T21:00:28.039Z,166.38267
2022-12-11T21:05:29.971Z,168.81752
2022-12-11T21:10:31.787Z,168
2022-12-11T21:15:33.547Z,159.38462
2022-12-11T21:20:35.704Z,152.81356
2022-12-11T21:25:37.616Z,147.30033
2022-12-11T21:30:39.396Z,152.10811
2022-12-11T21:35:41.508Z,168.81752
2022-12-11T21:40:43.411Z,157.88889
2022-12-11T21:46:00.902Z,151.40741
2022-12-11T21:51:03.771Z,152.81356
2022-12-11T21:56:05.553Z,154.23891
2022-12-11T22:01:07.350Z,157.88889
2022-12-11T22:06:10.049Z,158.63415
2022-12-11T22:11:11.850Z,147.30033
2022-12-11T22:16:13.742Z,144
2022-12-11T22:21:15.590Z,141.4359
2022-12-11T22:26:17.368Z,142.07074
2022-12-11T22:31:19.309Z,138.93671
2022-12-11T22:36:20.894Z,138.93671
2022-12-11T22:41:22.694Z,141.4359
2022-12-11T22:46:24.328Z,141.4359
2022-12-11T22:51:26.302Z,138.93671
2022-12-11T22:56:28.111Z,138.32177
2022-12-11T23:01:29.555Z,144.65147
2022-12-11T23:06:31.669Z,141.4359
2022-12-11T23:11:33.147Z,145.30719
2022-12-11T23:16:34.959Z,142.07074
2022-12-11T23:21:36.942Z,139.55556
2022-12-11T23:26:38.607Z,142.07074
2022-12-11T23:31:40.426Z,145.96721
2022-12-11T23:36:42.209Z,147.97351
2022-12-11T23:41:44.080Z,142.07074
2022-12-11T23:46:45.787Z,140.80511
2022-12-11T23:51:47.810Z,142.07074
2022-12-11T23:56:49.588Z,138.93671
